Time;durP1;ratioP1;P1;durP2;ratioP2;P2;SDS_P1;SDS_P2;PMS_P1;PMS_P2;Temp;Humidity;BMP_temperature;BMP_pressure;BME280_temperature;BME280_humidity;BME280_pressure;Samples;Min_cycle;Max_cycle;Signal;HPM_P1;HPM_P2
2022/09/03 00:01:57;;;;;;;4.70;1.75;;;18.90;81.00;;;;;;4807493;29;20441;-72
2022/09/03 00:04:42;;;;;;;4.18;2.25;;;19.50;89.90;;;;;;4783538;29;20378;-72
2022/09/03 00:07:16;;;;;;;6.97;2.00;;;19.00;81.70;;;;;;4807432;29;20485;-72
2022/09/03 00:09:48;;;;;;;10.40;2.20;;;18.80;81.40;;;;;;4792334;29;20046;-72
2022/09/03 00:12:14;;;;;;;;;;;18.70;82.30;;;;;;4808020;29;20054;-72
2022/09/03 00:15:02;;;;;;;4.25;2.47;;;18.70;82.40;;;;;;4807596;29;19937;-72
2022/09/03 00:17:37;;;;;;;6.40;2.20;;;19.60;90.70;;;;;;4807224;29;20162;-72
2022/09/03 00:20:29;;;;;;;6.88;2.17;;;18.50;79.50;;;;;;4807263;29;20059;-72
2022/09/03 00:22:57;;;;;;;7.75;1.95;;;18.60;81.90;;;;;;4799398;29;20429;-72
2022/09/03 00:25:35;;;;;;;8.07;2.00;;;18.50;82.50;;;;;;4807167;29;20147;-72
2022/09/03 00:28:04;;;;;;;6.72;2.05;;;19.60;90.80;;;;;;4807289;29;20069;-72
2022/09/03 00:30:32;;;;;;;3.78;1.88;;;18.50;81.00;;;;;;4807131;29;20501;-72
2022/09/03 00:33:05;;;;;;;6.57;1.92;;;18.50;90.50;;;;;;4806951;29;20054;-72
2022/09/03 00:35:40;;;;;;;3.03;1.90;;;17.60;90.40;;;;;;4806895;29;20496;-72
2022/09/03 00:38:08;;;;;;;5.47;2.10;;;18.40;81.60;;;;;;4806785;29;20078;-72
2022/09/03 00:40:53;;;;;;;4.10;2.10;;;18.80;90.80;;;;;;4806866;29;20508;-72
2022/09/03 00:43:42;;;;;;;4.75;2.00;;;17.40;90.40;;;;;;4806759;29;20121;-72
2022/09/03 00:46:18;;;;;;;6.18;2.00;;;;;;;;;;4806725;29;20051;-72
2022/09/03 00:49:05;;;;;;;9.88;2.25;;;18.50;80.40;;;;;;4806744;29;20061;-72
2022/09/03 00:51:34;;;;;;;4.13;1.95;;;18.20;82.90;;;;;;4791837;29;20054;-72
2022/09/03 00:54:47;;;;;;;3.90;2.00;;;18.20;83.50;;;;;;4791728;29;20086;-72
2022/09/03 00:57:29;;;;;;;6.18;2.30;;;19.40;83.70;;;;;;4786641;29;20063;-71
2022/09/03 01:00:01;;;;;;;9.10;2.20;;;;;;;;;;4806570;29;20431;-72
2022/09/03 01:02:27;;;;;;;;;;;;;;;;;;4806674;29;20116;-72
2022/09/03 01:04:54;;;;;;;6.47;1.90;;;;;;;;;;4791426;29;19921;-72
2022/09/03 01:07:45;;;;;;;4.88;1.98;;;18.20;91.00;;;;;;4806625;29;20134;-72
2022/09/03 01:10:11;;;;;;;4.00;1.90;;;;;;;;;;4806392;29;20047;-72
2022/09/03 01:12:54;;;;;;;3.05;1.90;;;18.20;80.70;;;;;;4807080;29;20074;-72
2022/09/03 01:15:34;;;;;;;4.32;1.85;;;18.20;83.40;;;;;;4802600;29;20100;-72
2022/09/03 01:18:12;;;;;;;11.68;2.03;;;18.20;83.30;;;;;;4806176;29;20047;-72
2022/09/03 01:21:04;;;;;;;4.70;2.20;;;18.10;80.90;;;;;;4806256;29;20043;-72
2022/09/03 01:23:48;;;;;;;16.63;2.13;;;;;;;;;;4806298;29;20047;-72
2022/09/03 01:26:14;;;;;;;3.13;2.00;;;;;;;;;;4806438;29;20366;-72
2022/09/03 01:28:43;;;;;;;7.32;2.08;;;18.90;84.30;;;;;;4806442;29;20042;-72
2022/09/03 01:31:11;;;;;;;3.50;1.80;;;18.90;91.40;;;;;;4806129;29;20059;-72
2022/09/03 01:33:47;;;;;;;3.17;2.20;;;17.90;83.50;;;;;;4806123;29;20485;-72
2022/09/03 01:36:28;;;;;;;3.33;1.98;;;17.40;82.80;;;;;;4806184;29;20090;-72
2022/09/03 01:39:07;;;;;;;6.10;2.20;;;17.90;84.10;;;;;;4805911;29;20077;-72
2022/09/03 01:44:39;;;;;;;9.60;2.05;;;18.00;81.50;;;;;;4805688;29;20056;-72
2022/09/03 01:47:22;;;;;;;3.85;1.83;;;;;;;;;;4805989;29;20117;-72
2022/09/03 01:50:35;;;;;;;6.93;1.83;;;17.90;84.70;;;;;;4790579;29;20050;-72
2022/09/03 01:53:38;;;;;;;6.13;2.30;;;16.60;91.10;;;;;;4764458;29;20150;-72
2022/09/03 01:56:33;;;;;;;;;;;17.70;84.80;;;;;;4805829;29;20048;-72
2022/09/03 01:59:19;;;;;;;6.45;1.90;;;17.80;81.70;;;;;;4742851;29;20277;-72
2022/09/03 02:01:58;;;;;;;3.13;2.20;;;17.90;84.60;;;;;;4790623;29;20154;-72
2022/09/03 02:04:25;;;;;;;3.83;1.90;;;18.00;84.30;;;;;;4805517;29;20082;-72
2022/09/03 02:06:55;;;;;;;5.75;2.33;;;17.30;91.30;;;;;;4805559;29;20043;-72
2022/09/03 02:09:21;;;;;;;3.40;1.90;;;;;;;;;;4805284;29;20061;-72
2022/09/03 02:12:09;;;;;;;3.63;1.90;;;17.90;84.80;;;;;;4805259;29;20065;-72
2022/09/03 02:14:36;;;;;;;8.60;2.10;;;;;;;;;;4805277;29;20050;-72
2022/09/03 02:17:04;;;;;;;3.50;1.65;;;18.30;90.50;;;;;;4805268;29;20062;-72
2022/09/03 02:19:30;;;;;;;3.80;1.88;;;17.80;83.80;;;;;;4805098;29;20057;-72
2022/09/03 02:21:57;;;;;;;2.67;1.88;;;;;;;;;;4805581;29;20070;-72
2022/09/03 02:24:27;;;;;;;3.20;1.90;;;17.80;84.70;;;;;;4805019;29;20512;-72
2022/09/03 02:26:54;;;;;;;6.15;1.90;;;;;;;;;;4804594;29;20062;-72
2022/09/03 02:29:20;;;;;;;4.65;1.85;;;17.70;84.70;;;;;;4806297;29;20072;-72
2022/09/03 02:31:47;;;;;;;3.78;1.50;;;;;;;;;;4805037;29;20053;-72
2022/09/03 02:34:13;;;;;;;6.50;1.80;;;;;;;;;;4805146;29;20051;-72
2022/09/03 02:36:42;;;;;;;7.15;1.70;;;17.30;84.80;;;;;;4804984;29;20055;-72
2022/09/03 02:39:08;;;;;;;5.80;1.80;;;;;;;;;;4804875;29;20038;-72
2022/09/03 02:41:35;;;;;;;5.55;1.65;;;;;;;;;;4805201;29;20449;-72
2022/09/03 02:44:12;;;;;;;3.00;1.80;;;17.60;85.70;;;;;;4804975;29;20043;-72
2022/09/03 02:46:43;;;;;;;5.97;2.17;;;18.30;92.20;;;;;;4805060;29;20078;-72
2022/09/03 02:49:09;;;;;;;2.85;1.80;;;16.20;84.60;;;;;;4790215;29;20061;-72
2022/09/03 02:51:38;;;;;;;6.15;1.70;;;17.20;85.30;;;;;;4804893;29;20051;-72
2022/09/03 02:54:04;;;;;;;4.82;1.98;;;;;;;;;;4804925;29;20484;-72
2022/09/03 02:56:30;;;;;;;2.85;1.75;;;;;;;;;;4804654;29;20054;-72
2022/09/03 02:58:56;;;;;;;4.18;2.00;;;;;;;;;;4804688;29;20046;-72
2022/09/03 03:01:23;;;;;;;5.90;1.70;;;;;;;;;;4805165;29;20438;-72
2022/09/03 03:03:49;;;;;;;2.95;1.70;;;;;;;;;;4804596;29;20062;-72
2022/09/03 03:06:15;;;;;;;3.25;1.52;;;18.50;92.50;;;;;;4804768;29;20102;-71
2022/09/03 03:08:43;;;;;;;2.17;1.65;;;16.60;92.00;;;;;;4804773;29;20133;-72
2022/09/03 03:11:09;;;;;;;5.47;2.03;;;;;;;;;;4804787;29;20134;-72
2022/09/03 03:13:35;;;;;;;2.95;1.83;;;;;;;;;;4790096;29;20497;-72
2022/09/03 03:16:06;;;;;;;7.03;2.10;;;17.30;86.00;;;;;;4789818;29;20046;-72
2022/09/03 03:18:33;;;;;;;6.88;2.08;;;;;;;;;;4804585;29;20063;-72
2022/09/03 03:21:07;;;;;;;7.60;1.77;;;17.10;85.80;;;;;;4804580;29;20047;-72
2022/09/03 03:23:34;;;;;;;6.03;2.08;;;17.10;84.70;;;;;;4804660;29;20047;-71
2022/09/03 03:26:06;;;;;;;4.05;1.80;;;16.00;90.40;;;;;;4804432;29;20039;-72
2022/09/03 03:28:34;;;;;;;2.90;2.17;;;17.90;92.70;;;;;;4804631;29;20050;-72
2022/09/03 03:31:12;;;;;;;4.82;1.52;;;18.00;92.60;;;;;;4804644;29;20111;-72
2022/09/03 03:33:39;;;;;;;3.63;1.90;;;;;;;;;;4789764;29;20058;-72
2022/09/03 03:36:13;;;;;;;2.70;1.75;;;17.10;86.80;;;;;;4804570;29;20435;-72
2022/09/03 03:38:41;;;;;;;2.13;1.60;;;17.20;85.50;;;;;;4804554;29;20413;-72
2022/09/03 03:41:20;;;;;;;4.07;1.88;;;17.00;86.40;;;;;;4808856;29;20053;-72
2022/09/03 03:43:47;;;;;;;8.48;1.88;;;;;;;;;;4809127;29;20122;-72
2022/09/03 03:46:16;;;;;;;4.18;2.00;;;17.10;85.60;;;;;;4807826;29;20039;-72
2022/09/03 03:48:42;;;;;;;4.57;1.80;;;;;;;;;;4807856;29;20051;-72
2022/09/03 03:51:09;;;;;;;5.13;1.92;;;17.10;86.70;;;;;;4807734;29;20107;-72
2022/09/03 03:53:36;;;;;;;2.92;1.80;;;17.20;86.90;;;;;;4807930;29;20065;-72
2022/09/03 03:56:05;;;;;;;4.05;1.98;;;17.00;87.10;;;;;;4807928;29;20113;-72
2022/09/03 03:58:32;;;;;;;3.15;1.90;;;16.80;86.10;;;;;;4807676;29;20051;-72
2022/09/03 04:01:05;;;;;;;6.72;1.88;;;17.20;85.00;;;;;;4792803;29;20451;-72
2022/09/03 04:03:31;;;;;;;3.88;1.90;;;;;;;;;;4807365;29;20063;-72
2022/09/03 04:05:58;;;;;;;4.32;1.92;;;;;;;;;;4807477;29;20161;-72
2022/09/03 04:08:24;;;;;;;6.47;1.90;;;;;;;;;;4807635;29;20050;-72
2022/09/03 04:10:51;;;;;;;3.55;1.90;;;;;;;;;;4792303;29;20050;-72
2022/09/03 04:13:17;;;;;;;3.58;2.00;;;;;;;;;;4807704;29;20062;-72
2022/09/03 04:15:43;;;;;;;4.70;2.00;;;;;;;;;;4807376;29;20062;-72
2022/09/03 04:18:09;;;;;;;4.20;2.13;;;;;;;;;;4807357;29;20055;-72
2022/09/03 04:20:35;;;;;;;3.00;1.98;;;;;;;;;;4792306;29;20043;-72
2022/09/03 04:23:02;;;;;;;4.35;1.70;;;;;;;;;;4807143;29;20129;-71
2022/09/03 04:25:28;;;;;;;5.13;1.77;;;16.80;93.00;;;;;;4792142;29;20042;-71
2022/09/03 04:27:54;;;;;;;6.05;1.92;;;;;;;;;;4807177;29;20047;-71
2022/09/03 04:30:20;;;;;;;5.68;2.05;;;;;;;;;;4807198;29;20560;-71
2022/09/03 04:32:52;;;;;;;8.07;1.80;;;17.00;87.60;;;;;;4807079;29;20047;-71
2022/09/03 04:35:19;;;;;;;4.53;2.22;;;;;;;;;;4807358;29;20046;-72
2022/09/03 04:37:46;;;;;;;9.63;1.98;;;;;;;;;;4806901;29;20085;-72
2022/09/03 04:40:12;;;;;;;2.72;1.85;;;;;;;;;;4806906;29;20536;-72
2022/09/03 04:42:38;;;;;;;6.07;2.00;;;;;;;;;;4791937;29;20085;-72
2022/09/03 04:45:05;;;;;;;5.40;2.00;;;;;;;;;;4806998;29;20061;-72
2022/09/03 04:47:31;;;;;;;5.35;2.00;;;;;;;;;;4806937;29;20051;-72
2022/09/03 04:49:57;;;;;;;6.22;2.10;;;;;;;;;;4806507;29;20127;-71
2022/09/03 04:52:23;;;;;;;5.28;1.80;;;;;;;;;;4791544;29;20481;-72
2022/09/03 04:54:49;;;;;;;5.28;2.10;;;;;;;;;;4806657;29;20047;-72
2022/09/03 04:57:16;;;;;;;4.30;2.13;;;;;;;;;;4806445;29;20492;-72
2022/09/03 04:59:42;;;;;;;4.32;2.08;;;;;;;;;;4806412;29;20153;-72
2022/09/03 05:02:09;;;;;;;7.43;2.08;;;;;;;;;;4806341;29;20065;-72
2022/09/03 05:04:35;;;;;;;2.67;2.05;;;;;;;;;;4806608;29;20160;-72
2022/09/03 05:07:01;;;;;;;2.97;2.10;;;;;;;;;;4806434;29;20058;-72
2022/09/03 05:09:27;;;;;;;4.30;2.20;;;;;;;;;;4806550;29;20070;-72
2022/09/03 05:11:54;;;;;;;4.70;1.90;;;;;;;;;;4806509;29;20138;-72
2022/09/03 05:14:20;;;;;;;3.05;1.92;;;;;;;;;;4806504;29;20092;-72
2022/09/03 05:16:46;;;;;;;5.20;2.10;;;;;;;;;;4791340;29;20050;-72
2022/09/03 05:19:12;;;;;;;4.82;2.10;;;;;;;;;;4806150;29;20066;-72
2022/09/03 05:21:38;;;;;;;3.38;2.05;;;;;;;;;;4806216;29;20054;-72
2022/09/03 05:24:04;;;;;;;3.65;2.30;;;;;;;;;;4791392;29;20138;-72
2022/09/03 05:26:32;;;;;;;5.97;2.13;;;;;;;;;;4791286;29;20047;-72
2022/09/03 05:29:00;;;;;;;4.20;2.33;;;16.50;89.60;;;;;;4806063;29;20058;-72
2022/09/03 05:31:30;;;;;;;3.72;2.22;;;16.80;90.00;;;;;;4806097;29;20382;-72
2022/09/03 05:33:57;;;;;;;5.18;2.53;;;;;;;;;;4805917;29;20047;-72
2022/09/03 05:36:25;;;;;;;6.18;2.30;;;16.50;89.90;;;;;;4790890;29;20100;-72
2022/09/03 05:38:54;;;;;;;3.78;2.03;;;;;;;;;;4805846;29;20423;-72
2022/09/03 05:41:22;;;;;;;7.07;2.40;;;16.40;90.00;;;;;;4805926;29;20408;-72
2022/09/03 05:43:54;;;;;;;5.00;2.25;;;16.50;90.10;;;;;;4805773;29;20053;-72
2022/09/03 05:46:30;;;;;;;4.50;2.58;;;16.60;89.50;;;;;;4791570;29;20038;-72
2022/09/03 05:49:00;;;;;;;4.20;2.45;;;16.70;90.10;;;;;;4806917;29;20085;-72
2022/09/03 05:51:27;;;;;;;5.53;2.00;;;16.70;94.30;;;;;;4805822;29;20055;-72
2022/09/03 05:53:54;;;;;;;8.30;2.40;;;15.50;94.10;;;;;;4805780;29;20508;-72
2022/09/03 05:56:21;;;;;;;3.10;2.15;;;;;;;;;;4805652;29;20099;-72
2022/09/03 05:58:51;;;;;;;5.90;2.40;;;16.60;90.40;;;;;;4805530;29;20165;-72
2022/09/03 06:01:25;;;;;;;3.05;2.20;;;16.60;90.60;;;;;;4790579;29;20054;-72
2022/09/03 06:04:06;;;;;;;3.92;2.40;;;16.60;90.70;;;;;;4805229;29;20050;-72
2022/09/03 06:06:35;;;;;;;9.13;2.38;;;16.40;90.40;;;;;;4805670;29;20049;-72
2022/09/03 06:09:06;;;;;;;12.15;2.40;;;16.50;90.60;;;;;;4805763;29;20047;-72
2022/09/03 06:11:34;;;;;;;11.43;2.83;;;16.50;90.30;;;;;;4805614;29;20039;-72
2022/09/03 06:14:01;;;;;;;4.30;2.55;;;16.80;90.30;;;;;;4790332;29;20046;-72
2022/09/03 06:16:28;;;;;;;5.07;2.08;;;16.70;90.50;;;;;;4790284;29;20058;-72
2022/09/03 06:18:55;;;;;;;3.83;2.33;;;;;;;;;;4790243;29;20042;-72
2022/09/03 06:21:21;;;;;;;4.40;2.47;;;;;;;;;;4805585;29;20108;-72
2022/09/03 06:23:51;;;;;;;4.85;2.30;;;;;;;;;;4805353;29;20087;-72
2022/09/03 06:26:17;;;;;;;3.72;2.53;;;;;;;;;;4805412;29;20046;-72
2022/09/03 06:28:43;;;;;;;6.95;2.47;;;16.40;90.60;;;;;;4805202;29;20162;-72
2022/09/03 06:31:14;;;;;;;3.08;2.50;;;16.50;90.70;;;;;;4805450;29;20125;-72
2022/09/03 06:33:41;;;;;;;4.78;2.63;;;;;;;;;;4805173;29;20158;-72
2022/09/03 06:36:12;;;;;;;4.45;2.30;;;16.40;90.60;;;;;;4805451;29;20059;-72
2022/09/03 06:38:39;;;;;;;4.47;2.70;;;;;;;;;;4805063;29;20042;-72
2022/09/03 06:41:24;;;;;;;4.82;2.40;;;16.70;90.70;;;;;;4805114;29;20320;-72
2022/09/03 06:43:52;;;;;;;3.65;2.55;;;16.70;90.60;;;;;;4805009;29;20042;-72
2022/09/03 06:46:20;;;;;;;7.32;2.65;;;15.50;94.40;;;;;;4804979;29;20050;-72
2022/09/03 06:48:47;;;;;;;3.47;2.45;;;;;;;;;;4790050;29;20519;-72
2022/09/03 06:51:25;;;;;;;6.85;2.50;;;16.90;90.70;;;;;;4790076;29;20050;-72
2022/09/03 06:53:52;;;;;;;5.47;2.90;;;;;;;;;;4804951;29;20058;-72
2022/09/03 06:56:25;;;;;;;4.65;2.38;;;17.00;90.50;;;;;;4804749;29;20055;-72
2022/09/03 06:58:53;;;;;;;6.68;2.70;;;;;;;;;;4804913;29;20086;-72
2022/09/03 07:01:24;;;;;;;4.18;2.70;;;17.20;90.30;;;;;;4804914;29;20122;-72
2022/09/03 07:03:55;;;;;;;4.65;2.67;;;;;;;;;;4804655;29;20059;-72
2022/09/03 07:06:21;;;;;;;4.53;2.55;;;;;;;;;;4804786;29;20544;-72
2022/09/03 07:08:47;;;;;;;7.57;2.53;;;;;;;;;;4805110;29;20059;-72
2022/09/03 07:11:19;;;;;;;6.28;2.47;;;17.30;90.10;;;;;;4804679;29;20165;-72
2022/09/03 07:13:47;;;;;;;8.00;2.50;;;17.50;90.00;;;;;;4806144;29;20082;-72
2022/09/03 07:16:18;;;;;;;5.35;2.50;;;17.30;90.10;;;;;;4808366;29;20046;-72
2022/09/03 07:18:45;;;;;;;5.32;2.47;;;17.40;89.20;;;;;;4808540;29;20051;-72
2022/09/03 07:21:32;;;;;;;4.55;2.50;;;17.60;90.10;;;;;;4793345;29;20043;-72
2022/09/03 07:23:59;;;;;;;7.68;2.63;;;;;;;;;;4808438;29;20373;-72
2022/09/03 07:26:27;;;;;;;6.22;2.55;;;17.30;89.30;;;;;;4808140;29;20043;-72
2022/09/03 07:28:54;;;;;;;4.53;2.35;;;;;;;;;;4808388;29;20059;-72
2022/09/03 07:31:26;;;;;;;3.72;2.38;;;17.30;89.10;;;;;;4792963;29;20046;-72
2022/09/03 07:33:55;;;;;;;6.72;2.42;;;;;;;;;;4808358;29;20404;-72
2022/09/03 07:36:23;;;;;;;3.50;2.30;;;17.70;88.90;;;;;;4808252;29;20114;-72
2022/09/03 07:38:49;;;;;;;8.07;3.13;;;;;;;;;;4807989;29;20097;-72
2022/09/03 07:41:15;;;;;;;9.38;2.65;;;;;;;;;;4808592;29;20042;-72
2022/09/03 07:43:45;;;;;;;13.43;2.60;;;18.00;88.50;;;;;;4807856;29;20043;-72
2022/09/03 07:46:12;;;;;;;12.82;2.65;;;;;;;;;;4807902;29;20548;-72
2022/09/03 07:48:39;;;;;;;17.90;2.65;;;17.90;88.10;;;;;;4807788;29;20161;-72
2022/09/03 07:51:05;;;;;;;7.05;2.42;;;;;;;;;;4807733;29;20055;-72
2022/09/03 07:53:32;;;;;;;5.50;2.35;;;;;;;;;;4807616;29;20047;-72
2022/09/03 07:56:05;;;;;;;5.43;2.70;;;18.10;90.90;;;;;;4807680;29;20090;-72
2022/09/03 07:58:33;;;;;;;7.05;2.53;;;;;;;;;;4807900;29;20069;-72
2022/09/03 08:01:04;;;;;;;5.10;2.40;;;18.10;88.10;;;;;;4807804;29;20083;-72
2022/09/03 08:03:31;;;;;;;6.35;2.50;;;19.10;93.50;;;;;;4807482;29;20051;-72
2022/09/03 08:06:01;;;;;;;5.93;2.60;;;18.20;87.70;;;;;;4792604;29;20047;-72
2022/09/03 08:08:27;;;;;;;12.25;2.95;;;;;;;;;;4807449;29;20043;-72
2022/09/03 08:10:53;;;;;;;7.95;2.45;;;;;;;;;;4807369;29;20050;-72
2022/09/03 08:13:19;;;;;;;7.38;2.80;;;;;;;;;;4807364;29;20058;-72
2022/09/03 08:15:54;;;;;;;4.32;2.60;;;18.60;87.70;;;;;;4807655;29;20043;-72
2022/09/03 08:18:21;;;;;;;7.75;2.65;;;;;;;;;;4792234;29;20382;-72
2022/09/03 08:20:47;;;;;;;4.72;2.90;;;;;;;;;;4807339;29;20054;-72
2022/09/03 08:23:14;;;;;;;7.28;2.78;;;;;;;;;;4808174;29;20047;-72
2022/09/03 08:25:40;;;;;;;5.15;2.50;;;;;;;;;;4806420;29;20042;-72
2022/09/03 08:28:06;;;;;;;6.07;2.80;;;;;;;;;;4807324;29;20082;-72
2022/09/03 08:30:33;;;;;;;7.35;3.58;;;;;;;;;;4807596;29;20374;-72
2022/09/03 08:33:03;;;;;;;6.93;2.70;;;19.00;86.50;;;;;;4807234;29;20054;-73
2022/09/03 08:35:33;;;;;;;7.57;2.80;;;18.60;92.40;;;;;;4792033;29;20095;-72
2022/09/03 08:38:04;;;;;;;5.05;2.53;;;;;;;;;;4806915;29;20047;-72
2022/09/03 08:40:33;;;;;;;6.70;2.38;;;19.10;86.00;;;;;;4807227;29;20058;-72
2022/09/03 08:43:05;;;;;;;8.93;3.03;;;19.40;83.60;;;;;;4806989;29;20489;-72
2022/09/03 08:45:34;;;;;;;6.90;3.10;;;19.10;85.60;;;;;;4807440;29;20054;-72
2022/09/03 08:48:22;;;;;;;5.55;2.63;;;19.10;85.70;;;;;;4792066;29;20399;-72
2022/09/03 08:50:54;;;;;;;9.43;2.97;;;19.80;87.00;;;;;;4791996;29;20054;-72
2022/09/03 08:53:35;;;;;;;3.60;2.60;;;19.20;85.00;;;;;;4807043;29;20069;-72
2022/09/03 08:56:10;;;;;;;3.50;2.70;;;19.10;82.50;;;;;;4806499;29;20046;-72
2022/09/03 08:58:42;;;;;;;4.03;2.60;;;;;;;;;;4807257;29;20046;-72
2022/09/03 09:01:10;;;;;;;6.18;2.72;;;;;;;;;;4806904;29;20130;-72
2022/09/03 09:04:00;;;;;;;10.27;2.83;;;20.00;91.90;;;;;;4806398;29;20118;-72
2022/09/03 09:06:41;;;;;;;5.85;2.53;;;19.10;91.60;;;;;;4806604;29;20043;-72
2022/09/03 09:09:13;;;;;;;8.57;2.80;;;20.40;91.90;;;;;;4806798;29;20082;-72
2022/09/03 09:12:16;;;;;;;12.45;2.55;;;19.70;82.00;;;;;;4806797;29;20058;-72
2022/09/03 09:14:54;;;;;;;7.97;2.80;;;20.50;91.70;;;;;;4806320;29;20050;-72
2022/09/03 09:17:29;;;;;;;6.97;2.45;;;19.00;91.30;;;;;;4806533;29;20055;-72
2022/09/03 09:20:02;;;;;;;9.43;2.75;;;;;;;;;;4791244;29;20057;-72
2022/09/03 09:22:37;;;;;;;;;;;20.10;84.60;;;;;;4806637;29;20049;-72
2022/09/03 09:25:13;;;;;;;6.28;2.72;;;20.30;83.50;;;;;;4806094;29;19921;-72
2022/09/03 09:27:46;;;;;;;8.15;2.83;;;20.30;83.10;;;;;;4806397;29;20047;-72
2022/09/03 09:30:15;;;;;;;5.93;2.90;;;20.40;91.00;;;;;;4806088;29;20512;-72
2022/09/03 09:32:41;;;;;;;4.38;2.80;;;;;;;;;;4806041;29;20133;-72
2022/09/03 09:35:09;;;;;;;9.40;2.70;;;21.00;91.00;;;;;;4776224;29;20053;-72
2022/09/03 09:37:56;;;;;;;5.70;2.53;;;21.50;89.30;;;;;;4805254;29;20547;-72
2022/09/03 09:40:31;;;;;;;6.68;2.60;;;20.60;82.20;;;;;;4805901;29;20453;-72
2022/09/03 09:43:07;;;;;;;4.47;2.85;;;20.90;82.60;;;;;;4805850;29;20051;-72
2022/09/03 09:45:33;;;;;;;6.50;2.67;;;21.50;90.70;;;;;;4806023;29;20043;-72
2022/09/03 09:48:01;;;;;;;6.53;2.53;;;21.40;90.50;;;;;;4790830;29;20057;-72
2022/09/03 09:50:27;;;;;;;8.25;2.80;;;21.00;90.30;;;;;;4806014;29;20047;-72
2022/09/03 09:53:05;;;;;;;3.35;2.53;;;20.20;89.80;;;;;;4807198;29;20400;-73
2022/09/03 09:55:31;;;;;;;6.60;2.47;;;20.80;80.20;;;;;;4805772;29;20126;-72
2022/09/03 09:58:08;;;;;;;12.77;3.33;;;22.10;90.20;;;;;;4805574;29;20400;-72
2022/09/03 10:00:36;;;;;;;3.40;2.25;;;21.00;89.70;;;;;;4790826;29;20133;-72
2022/09/03 10:03:09;;;;;;;8.65;2.80;;;21.60;89.60;;;;;;4805318;29;20111;-72
2022/09/03 10:05:38;;;;;;;6.43;2.60;;;22.30;89.90;;;;;;4805617;29;20185;-72
2022/09/03 10:08:19;;;;;;;4.97;2.58;;;21.30;88.80;;;;;;4805761;29;20054;-72
2022/09/03 10:10:48;;;;;;;5.63;2.40;;;22.00;79.40;;;;;;4805482;29;20050;-72
2022/09/03 10:13:25;;;;;;;4.40;2.58;;;21.80;79.40;;;;;;4806909;29;20122;-71
2022/09/03 10:16:03;;;;;;;7.55;2.70;;;22.10;79.10;;;;;;4810070;29;20480;-72
2022/09/03 10:18:41;;;;;;;8.02;2.80;;;22.20;76.50;;;;;;4790174;29;20082;-72
2022/09/03 10:21:09;;;;;;;4.55;2.42;;;;;;;;;;4805172;29;20054;-72
2022/09/03 10:24:23;;;;;;;12.00;2.75;;;22.50;87.90;;;;;;4805217;29;20049;-72
2022/09/03 10:26:49;;;;;;;6.28;2.55;;;;;;;;;;4742619;29;20137;-72
2022/09/03 10:29:28;;;;;;;5.13;2.40;;;21.90;86.80;;;;;;4805235;29;20047;-72
2022/09/03 10:32:26;;;;;;;10.68;2.60;;;22.60;75.00;;;;;;4806381;29;20110;-72
2022/09/03 10:35:01;;;;;;;6.07;2.65;;;22.10;86.20;;;;;;4805112;29;20050;-72
2022/09/03 10:38:02;;;;;;;5.68;2.60;;;22.40;86.10;;;;;;4805385;29;20397;-73
2022/09/03 10:40:31;;;;;;;6.60;2.38;;;;;;;;;;4793078;29;20059;-72
2022/09/03 10:42:59;;;;;;;6.95;2.28;;;23.70;86.50;;;;;;4805268;29;20389;-72
2022/09/03 10:45:41;;;;;;;10.48;2.30;;;23.30;73.70;;;;;;4805130;29;20046;-72
2022/09/03 10:48:41;;;;;;;6.82;2.67;;;23.50;85.70;;;;;;4804993;29;20088;-72
2022/09/03 10:51:27;;;;;;;4.57;2.33;;;23.30;85.40;;;;;;4804939;29;20563;-72
2022/09/03 10:54:02;;;;;;;5.70;2.40;;;24.10;85.40;;;;;;4804870;29;20583;-72
2022/09/03 10:56:48;;;;;;;4.25;2.17;;;24.10;85.20;;;;;;4804730;29;20534;-72
2022/09/03 10:59:44;;;;;;;6.63;2.42;;;23.20;84.20;;;;;;4804833;29;20047;-72
2022/09/03 11:02:47;;;;;;;3.83;2.50;;;23.70;84.20;;;;;;4804730;29;20061;-72
2022/09/03 11:05:30;;;;;;;10.52;2.28;;;23.20;83.30;;;;;;4804747;29;20055;-72
2022/09/03 11:08:12;;;;;;;6.03;2.40;;;24.00;83.30;;;;;;4804810;29;20458;-72
2022/09/03 11:10:56;;;;;;;6.55;2.30;;;24.50;83.30;;;;;;4804979;29;20560;-72
2022/09/03 11:13:22;;;;;;;4.82;2.35;;;;;;;;;;4804664;29;20054;-72
2022/09/03 11:15:52;;;;;;;7.15;2.17;;;23.80;82.50;;;;;;4804596;29;20050;-72
2022/09/03 11:18:23;;;;;;;7.35;2.40;;;24.80;82.70;;;;;;4789845;29;20091;-72
2022/09/03 11:20:53;;;;;;;4.32;2.50;;;24.90;81.80;;;;;;4804748;29;20058;-72
2022/09/03 11:23:23;;;;;;;4.97;2.03;;;23.90;81.00;;;;;;4804719;29;20518;-72
2022/09/03 11:25:53;;;;;;;9.30;2.72;;;24.30;81.10;;;;;;4804949;29;20073;-72
2022/09/03 11:28:19;;;;;;;5.25;2.22;;;24.80;81.20;;;;;;4804821;29;20054;-72
2022/09/03 11:31:13;;;;;;;9.45;2.47;;;25.10;81.20;;;;;;4804727;29;20047;-72
2022/09/03 11:33:46;;;;;;;5.32;2.22;;;25.20;80.70;;;;;;4804922;29;20049;-72
2022/09/03 11:36:12;;;;;;;4.70;2.33;;;25.40;80.40;;;;;;4805125;29;20105;-72
2022/09/03 11:38:38;;;;;;;8.25;2.80;;;25.40;80.00;;;;;;4804627;29;20083;-72
2022/09/03 11:41:24;;;;;;;26.10;2.45;;;25.30;80.00;;;;;;4804588;29;20086;-72
2022/09/03 11:43:50;;;;;;;4.75;2.30;;;25.70;79.30;;;;;;4804533;29;20046;-72
2022/09/03 11:46:22;;;;;;;4.53;2.08;;;25.10;78.70;;;;;;4789609;29;20053;-72
2022/09/03 11:48:54;;;;;;;10.65;2.22;;;24.50;77.60;;;;;;4804362;29;20134;-72
2022/09/03 11:51:28;;;;;;;8.10;2.00;;;25.70;77.90;;;;;;4804411;29;20050;-72
2022/09/03 11:53:56;;;;;;;3.55;2.05;;;25.50;77.20;;;;;;4804615;29;20474;-72
2022/09/03 11:56:22;;;;;;;4.80;2.00;;;26.00;77.10;;;;;;4804416;29;20082;-72
2022/09/03 11:59:15;;;;;;;3.97;2.25;;;25.20;76.10;;;;;;4789470;29;20086;-72
2022/09/03 12:02:02;;;;;;;7.03;2.05;;;25.20;76.00;;;;;;4806934;29;20047;-72
2022/09/03 12:04:44;;;;;;;5.65;1.70;;;25.40;75.60;;;;;;4807691;29;20055;-72
2022/09/03 12:07:47;;;;;;;6.93;2.00;;;26.20;75.60;;;;;;4807871;29;20043;-72
2022/09/03 12:10:51;;;;;;;3.55;1.90;;;26.00;75.30;;;;;;4792450;29;20078;-72
2022/09/03 12:13:39;;;;;;;3.78;1.95;;;25.90;75.10;;;;;;4807710;29;20466;-72
2022/09/03 12:16:06;;;;;;;6.55;1.83;;;;;;;;;;4807358;29;20089;-72
2022/09/03 12:18:34;;;;;;;7.93;2.08;;;26.40;74.40;;;;;;4807215;29;20587;-72
2022/09/03 12:21:04;;;;;;;5.22;2.15;;;26.30;64.50;;;;;;4807214;29;20084;-72
2022/09/03 12:23:43;;;;;;;8.05;2.13;;;26.30;61.80;;;;;;4792234;29;20103;-72
2022/09/03 12:26:22;;;;;;;7.57;2.20;;;26.50;73.70;;;;;;4807309;29;20404;-72
2022/09/03 12:28:57;;;;;;;4.15;1.83;;;26.60;61.40;;;;;;4807260;29;20478;-72
2022/09/03 12:31:29;;;;;;;6.30;2.08;;;26.80;72.90;;;;;;4807120;29;20051;-72
2022/09/03 12:33:59;;;;;;;5.13;2.10;;;26.90;63.60;;;;;;4807431;29;20051;-72
2022/09/03 12:36:35;;;;;;;5.10;2.60;;;26.50;72.50;;;;;;4806956;29;20057;-72
2022/09/03 12:39:28;;;;;;;3.03;1.70;;;27.00;72.40;;;;;;4807042;29;20050;-72
2022/09/03 12:42:11;;;;;;;2.67;2.05;;;27.10;72.50;;;;;;4803838;29;20055;-72
2022/09/03 12:44:38;;;;;;;6.40;2.00;;;;;;;;;;4792008;29;20107;-72
2022/09/03 12:47:11;;;;;;;4.47;1.95;;;27.60;71.50;;;;;;4806785;29;20078;-72
2022/09/03 12:49:44;;;;;;;9.13;2.38;;;27.60;71.40;;;;;;4807161;29;20050;-72
2022/09/03 12:52:32;;;;;;;4.68;1.90;;;26.60;70.60;;;;;;4806888;29;20050;-72
2022/09/03 12:55:13;;;;;;;9.32;2.35;;;27.40;71.30;;;;;;4806826;29;20055;-72
2022/09/03 12:57:48;;;;;;;5.45;1.95;;;27.80;66.20;;;;;;4806689;29;20115;-72
2022/09/03 13:00:17;;;;;;;6.38;2.08;;;27.70;65.60;;;;;;4806528;29;20519;-73
2022/09/03 13:02:55;;;;;;;5.57;2.03;;;27.50;58.40;;;;;;4806423;29;20061;-72
2022/09/03 13:05:25;;;;;;;5.95;2.05;;;27.80;70.40;;;;;;4806658;29;20055;-73
2022/09/03 13:07:57;;;;;;;4.95;2.92;;;27.70;60.20;;;;;;4806563;29;20097;-73
2022/09/03 13:10:27;;;;;;;2.38;1.70;;;28.00;69.80;;;;;;4806733;29;20055;-72
2022/09/03 13:13:02;;;;;;;6.53;2.00;;;28.20;70.00;;;;;;4806300;29;20054;-72
2022/09/03 13:15:29;;;;;;;5.35;1.90;;;27.20;69.00;;;;;;4806424;29;20162;-72
2022/09/03 13:18:23;;;;;;;3.60;2.00;;;28.10;69.80;;;;;;4806379;29;20050;-72
2022/09/03 13:21:27;;;;;;;7.93;1.80;;;28.30;69.50;;;;;;4806286;29;20051;-73
2022/09/03 13:23:52;;;;;;;7.82;1.80;;;27.60;68.40;;;;;;4786690;29;20055;-72
2022/09/03 13:26:24;;;;;;;5.13;2.00;;;28.20;69.00;;;;;;4806143;29;20054;-73
2022/09/03 13:28:57;;;;;;;5.60;2.20;;;28.20;68.60;;;;;;4806080;29;20055;-73
2022/09/03 13:31:37;;;;;;;3.60;1.80;;;28.50;67.30;;;;;;4806230;29;20150;-72
2022/09/03 13:34:08;;;;;;;5.85;1.77;;;28.00;68.20;;;;;;4806087;29;20086;-71
2022/09/03 13:36:44;;;;;;;4.67;2.67;;;28.20;58.40;;;;;;4806065;29;20051;-71
2022/09/03 13:39:58;;;;;;;9.23;1.90;;;28.30;55.80;;;;;;4807166;29;20082;-71
2022/09/03 13:42:32;;;;;;;5.95;1.80;;;28.00;67.30;;;;;;4736997;30;20453;-71
2022/09/03 13:44:58;;;;;;;7.30;1.55;;;;;;;;;;4722012;30;20542;-71
2022/09/03 13:47:33;;;;;;;3.88;1.58;;;28.60;59.60;;;;;;4783392;29;20050;-71
2022/09/03 13:50:22;;;;;;;4.75;1.85;;;28.90;60.30;;;;;;4805976;29;20381;-71
2022/09/03 13:53:30;;;;;;;6.13;2.08;;;28.80;55.00;;;;;;4805594;29;20115;-71
2022/09/03 13:56:05;;;;;;;3.60;1.90;;;29.20;66.70;;;;;;4790441;29;20130;-71
2022/09/03 13:58:46;;;;;;;5.88;1.70;;;28.90;66.40;;;;;;4805612;29;20047;-70